sensor_id;sensor_type;location;lat;lon;timestamp;P1;durP1;ratioP1;P2;durP2;ratioP2
10365;SDS011;5229;41.820;23.490;2023-04-10T00:00:48;4.47;;;3.77;;
10365;SDS011;5229;41.820;23.490;2023-04-10T00:03:21;4.20;;;3.63;;
10365;SDS011;5229;41.820;23.490;2023-04-10T00:05:48;4.87;;;3.93;;
10365;SDS011;5229;41.820;23.490;2023-04-10T00:08:14;5.23;;;4.00;;
10365;SDS011;5229;41.820;23.490;2023-04-10T00:10:41;4.47;;;3.70;;
10365;SDS011;5229;41.820;23.490;2023-04-10T00:13:08;4.20;;;3.77;;
10365;SDS011;5229;41.820;23.490;2023-04-10T00:15:35;5.00;;;4.50;;
10365;SDS011;5229;41.820;23.490;2023-04-10T00:18:03;4.83;;;4.33;;
10365;SDS011;5229;41.820;23.490;2023-04-10T00:20:30;7.80;;;5.30;;
10365;SDS011;5229;41.820;23.490;2023-04-10T00:22:56;5.60;;;4.40;;
10365;SDS011;5229;41.820;23.490;2023-04-10T00:25:23;5.50;;;4.27;;
10365;SDS011;5229;41.820;23.490;2023-04-10T00:27:51;5.07;;;4.57;;
10365;SDS011;5229;41.820;23.490;2023-04-10T00:30:18;4.80;;;4.30;;
10365;SDS011;5229;41.820;23.490;2023-04-10T00:32:45;5.10;;;4.13;;
10365;SDS011;5229;41.820;23.490;2023-04-10T00:35:13;4.40;;;4.00;;
10365;SDS011;5229;41.820;23.490;2023-04-10T00:37:40;5.60;;;4.40;;
10365;SDS011;5229;41.820;23.490;2023-04-10T00:40:07;4.63;;;4.20;;
10365;SDS011;5229;41.820;23.490;2023-04-10T00:42:35;4.20;;;3.80;;
10365;SDS011;5229;41.820;23.490;2023-04-10T00:45:01;4.90;;;4.10;;
10365;SDS011;5229;41.820;23.490;2023-04-10T00:47:28;4.40;;;4.00;;
10365;SDS011;5229;41.820;23.490;2023-04-10T00:49:55;4.47;;;4.07;;
10365;SDS011;5229;41.820;23.490;2023-04-10T00:52:24;5.47;;;4.40;;
10365;SDS011;5229;41.820;23.490;2023-04-10T00:54:51;4.93;;;4.43;;
10365;SDS011;5229;41.820;23.490;2023-04-10T00:57:18;5.73;;;4.27;;
10365;SDS011;5229;41.820;23.490;2023-04-10T00:59:45;4.73;;;4.17;;
10365;SDS011;5229;41.820;23.490;2023-04-10T01:02:12;5.07;;;4.33;;
10365;SDS011;5229;41.820;23.490;2023-04-10T01:04:39;4.70;;;4.03;;
10365;SDS011;5229;41.820;23.490;2023-04-10T01:07:09;5.77;;;5.17;;
10365;SDS011;5229;41.820;23.490;2023-04-10T01:09:46;4.67;;;4.20;;
10365;SDS011;5229;41.820;23.490;2023-04-10T01:12:22;4.97;;;4.47;;
10365;SDS011;5229;41.820;23.490;2023-04-10T01:15:01;4.97;;;4.43;;
10365;SDS011;5229;41.820;23.490;2023-04-10T01:17:34;5.43;;;4.57;;
10365;SDS011;5229;41.820;23.490;2023-04-10T01:20:09;5.40;;;4.47;;
10365;SDS011;5229;41.820;23.490;2023-04-10T01:22:43;5.27;;;4.23;;
10365;SDS011;5229;41.820;23.490;2023-04-10T01:31:20;4.80;;;4.13;;
10365;SDS011;5229;41.820;23.490;2023-04-10T01:33:56;5.13;;;4.50;;
10365;SDS011;5229;41.820;23.490;2023-04-10T01:36:27;4.90;;;4.00;;
10365;SDS011;5229;41.820;23.490;2023-04-10T01:39:01;4.67;;;4.03;;
10365;SDS011;5229;41.820;23.490;2023-04-10T01:41:29;4.90;;;4.40;;
10365;SDS011;5229;41.820;23.490;2023-04-10T01:43:59;5.60;;;4.47;;
10365;SDS011;5229;41.820;23.490;2023-04-10T01:46:29;4.47;;;4.07;;
10365;SDS011;5229;41.820;23.490;2023-04-10T01:48:57;5.43;;;4.93;;
10365;SDS011;5229;41.820;23.490;2023-04-10T01:51:27;5.07;;;4.47;;
10365;SDS011;5229;41.820;23.490;2023-04-10T01:53:56;5.33;;;4.67;;
10365;SDS011;5229;41.820;23.490;2023-04-10T01:56:24;6.50;;;5.60;;
10365;SDS011;5229;41.820;23.490;2023-04-10T01:58:52;9.47;;;6.50;;
10365;SDS011;5229;41.820;23.490;2023-04-10T02:01:21;6.77;;;5.83;;
10365;SDS011;5229;41.820;23.490;2023-04-10T02:03:48;5.73;;;4.60;;
10365;SDS011;5229;41.820;23.490;2023-04-10T02:06:17;5.23;;;4.20;;
10365;SDS011;5229;41.820;23.490;2023-04-10T02:08:52;4.17;;;3.77;;
10365;SDS011;5229;41.820;23.490;2023-04-10T02:11:24;4.33;;;3.93;;
10365;SDS011;5229;41.820;23.490;2023-04-10T02:14:00;4.63;;;4.20;;
10365;SDS011;5229;41.820;23.490;2023-04-10T02:16:32;4.67;;;3.87;;
10365;SDS011;5229;41.820;23.490;2023-04-10T02:19:00;4.07;;;3.67;;
10365;SDS011;5229;41.820;23.490;2023-04-10T02:21:28;3.97;;;3.50;;
10365;SDS011;5229;41.820;23.490;2023-04-10T02:23:55;4.80;;;4.07;;
10365;SDS011;5229;41.820;23.490;2023-04-10T02:26:22;4.10;;;3.70;;
10365;SDS011;5229;41.820;23.490;2023-04-10T02:28:49;4.67;;;3.97;;
10365;SDS011;5229;41.820;23.490;2023-04-10T02:31:16;4.93;;;4.00;;
10365;SDS011;5229;41.820;23.490;2023-04-10T02:33:44;4.03;;;3.63;;
10365;SDS011;5229;41.820;23.490;2023-04-10T02:36:11;4.77;;;3.83;;
10365;SDS011;5229;41.820;23.490;2023-04-10T02:38:38;5.63;;;4.23;;
10365;SDS011;5229;41.820;23.490;2023-04-10T02:41:05;3.90;;;3.30;;
10365;SDS011;5229;41.820;23.490;2023-04-10T02:43:32;3.50;;;3.20;;
10365;SDS011;5229;41.820;23.490;2023-04-10T02:45:58;4.37;;;3.77;;
10365;SDS011;5229;41.820;23.490;2023-04-10T02:48:25;3.60;;;3.30;;
10365;SDS011;5229;41.820;23.490;2023-04-10T02:50:56;4.00;;;3.60;;
10365;SDS011;5229;41.820;23.490;2023-04-10T02:53:22;4.50;;;3.80;;
10365;SDS011;5229;41.820;23.490;2023-04-10T02:55:51;3.83;;;3.43;;
10365;SDS011;5229;41.820;23.490;2023-04-10T02:58:18;3.93;;;3.20;;
10365;SDS011;5229;41.820;23.490;2023-04-10T03:00:46;3.40;;;3.10;;
10365;SDS011;5229;41.820;23.490;2023-04-10T03:03:14;3.97;;;3.30;;
10365;SDS011;5229;41.820;23.490;2023-04-10T03:05:41;4.17;;;3.20;;
10365;SDS011;5229;41.820;23.490;2023-04-10T03:08:12;4.80;;;3.87;;
10365;SDS011;5229;41.820;23.490;2023-04-10T03:10:39;3.10;;;2.80;;
10365;SDS011;5229;41.820;23.490;2023-04-10T03:13:07;4.53;;;3.53;;
10365;SDS011;5229;41.820;23.490;2023-04-10T03:15:34;3.70;;;3.30;;
10365;SDS011;5229;41.820;23.490;2023-04-10T03:18:01;4.60;;;3.50;;
10365;SDS011;5229;41.820;23.490;2023-04-10T03:20:27;3.40;;;3.10;;
10365;SDS011;5229;41.820;23.490;2023-04-10T03:22:54;3.73;;;3.20;;
10365;SDS011;5229;41.820;23.490;2023-04-10T03:25:23;3.67;;;3.37;;
10365;SDS011;5229;41.820;23.490;2023-04-10T03:27:50;3.60;;;3.20;;
10365;SDS011;5229;41.820;23.490;2023-04-10T03:30:17;3.10;;;2.80;;
10365;SDS011;5229;41.820;23.490;2023-04-10T03:32:44;3.97;;;3.57;;
10365;SDS011;5229;41.820;23.490;2023-04-10T03:35:10;4.03;;;3.63;;
10365;SDS011;5229;41.820;23.490;2023-04-10T03:37:37;3.80;;;3.07;;
10365;SDS011;5229;41.820;23.490;2023-04-10T03:40:06;3.73;;;2.90;;
10365;SDS011;5229;41.820;23.490;2023-04-10T03:42:36;3.90;;;3.37;;
10365;SDS011;5229;41.820;23.490;2023-04-10T03:45:03;3.47;;;3.07;;
10365;SDS011;5229;41.820;23.490;2023-04-10T03:47:31;4.00;;;3.07;;
10365;SDS011;5229;41.820;23.490;2023-04-10T03:49:58;3.53;;;2.90;;
10365;SDS011;5229;41.820;23.490;2023-04-10T03:52:25;3.40;;;3.10;;
10365;SDS011;5229;41.820;23.490;2023-04-10T03:54:52;4.20;;;3.33;;
10365;SDS011;5229;41.820;23.490;2023-04-10T03:57:19;4.27;;;3.50;;
10365;SDS011;5229;41.820;23.490;2023-04-10T03:59:47;3.43;;;3.00;;
10365;SDS011;5229;41.820;23.490;2023-04-10T04:02:15;3.83;;;3.00;;
10365;SDS011;5229;41.820;23.490;2023-04-10T04:04:42;3.53;;;3.10;;
10365;SDS011;5229;41.820;23.490;2023-04-10T04:07:09;3.90;;;3.20;;
10365;SDS011;5229;41.820;23.490;2023-04-10T04:09:37;3.57;;;3.10;;
10365;SDS011;5229;41.820;23.490;2023-04-10T04:12:05;3.47;;;3.13;;
10365;SDS011;5229;41.820;23.490;2023-04-10T04:14:32;3.70;;;3.23;;
10365;SDS011;5229;41.820;23.490;2023-04-10T04:17:00;3.30;;;2.77;;
10365;SDS011;5229;41.820;23.490;2023-04-10T04:19:26;4.17;;;3.47;;
10365;SDS011;5229;41.820;23.490;2023-04-10T04:21:53;3.37;;;3.00;;
10365;SDS011;5229;41.820;23.490;2023-04-10T04:24:20;3.57;;;3.20;;
10365;SDS011;5229;41.820;23.490;2023-04-10T04:26:47;3.80;;;3.20;;
10365;SDS011;5229;41.820;23.490;2023-04-10T04:29:14;3.40;;;3.10;;
10365;SDS011;5229;41.820;23.490;2023-04-10T04:31:40;7.00;;;3.20;;
10365;SDS011;5229;41.820;23.490;2023-04-10T04:34:08;2.93;;;2.63;;
10365;SDS011;5229;41.820;23.490;2023-04-10T04:36:35;3.43;;;3.10;;
10365;SDS011;5229;41.820;23.490;2023-04-10T04:39:02;3.30;;;2.90;;
10365;SDS011;5229;41.820;23.490;2023-04-10T04:41:29;2.70;;;2.50;;
10365;SDS011;5229;41.820;23.490;2023-04-10T04:43:56;3.37;;;3.07;;
10365;SDS011;5229;41.820;23.490;2023-04-10T04:46:23;2.70;;;2.50;;
10365;SDS011;5229;41.820;23.490;2023-04-10T04:48:50;2.30;;;2.10;;
10365;SDS011;5229;41.820;23.490;2023-04-10T04:51:18;3.00;;;2.30;;
10365;SDS011;5229;41.820;23.490;2023-04-10T04:53:45;2.73;;;2.30;;
10365;SDS011;5229;41.820;23.490;2023-04-10T04:56:11;2.67;;;2.47;;
10365;SDS011;5229;41.820;23.490;2023-04-10T04:58:38;2.63;;;2.20;;
10365;SDS011;5229;41.820;23.490;2023-04-10T05:01:06;3.70;;;2.60;;
10365;SDS011;5229;41.820;23.490;2023-04-10T05:03:33;2.97;;;2.40;;
10365;SDS011;5229;41.820;23.490;2023-04-10T05:06:00;2.63;;;2.10;;
10365;SDS011;5229;41.820;23.490;2023-04-10T05:08:28;3.07;;;2.60;;
10365;SDS011;5229;41.820;23.490;2023-04-10T05:10:55;3.10;;;2.63;;
10365;SDS011;5229;41.820;23.490;2023-04-10T05:13:22;2.97;;;2.40;;
10365;SDS011;5229;41.820;23.490;2023-04-10T05:15:49;2.70;;;2.50;;
10365;SDS011;5229;41.820;23.490;2023-04-10T05:18:15;3.20;;;2.30;;
10365;SDS011;5229;41.820;23.490;2023-04-10T05:20:44;3.33;;;2.70;;
10365;SDS011;5229;41.820;23.490;2023-04-10T05:23:11;2.63;;;2.43;;
10365;SDS011;5229;41.820;23.490;2023-04-10T05:25:40;3.10;;;2.80;;
10365;SDS011;5229;41.820;23.490;2023-04-10T05:28:07;2.87;;;2.20;;
10365;SDS011;5229;41.820;23.490;2023-04-10T05:30:34;3.70;;;2.37;;
10365;SDS011;5229;41.820;23.490;2023-04-10T05:33:00;2.20;;;2.00;;
10365;SDS011;5229;41.820;23.490;2023-04-10T05:35:27;3.10;;;2.60;;
10365;SDS011;5229;41.820;23.490;2023-04-10T05:37:54;4.10;;;2.77;;
10365;SDS011;5229;41.820;23.490;2023-04-10T05:40:21;3.23;;;2.40;;
10365;SDS011;5229;41.820;23.490;2023-04-10T05:42:49;3.23;;;2.77;;
10365;SDS011;5229;41.820;23.490;2023-04-10T05:45:16;3.30;;;2.53;;
10365;SDS011;5229;41.820;23.490;2023-04-10T05:47:43;3.57;;;2.40;;
10365;SDS011;5229;41.820;23.490;2023-04-10T05:50:10;3.20;;;2.90;;
10365;SDS011;5229;41.820;23.490;2023-04-10T05:52:36;2.80;;;2.43;;
10365;SDS011;5229;41.820;23.490;2023-04-10T05:55:03;3.00;;;2.60;;
10365;SDS011;5229;41.820;23.490;2023-04-10T05:57:31;2.57;;;2.20;;
10365;SDS011;5229;41.820;23.490;2023-04-10T05:59:59;2.47;;;2.27;;
10365;SDS011;5229;41.820;23.490;2023-04-10T06:02:26;3.73;;;2.50;;
10365;SDS011;5229;41.820;23.490;2023-04-10T06:04:54;2.50;;;2.30;;
10365;SDS011;5229;41.820;23.490;2023-04-10T06:07:21;3.23;;;2.47;;
10365;SDS011;5229;41.820;23.490;2023-04-10T06:09:48;2.80;;;2.50;;
10365;SDS011;5229;41.820;23.490;2023-04-10T06:12:14;2.87;;;2.50;;
10365;SDS011;5229;41.820;23.490;2023-04-10T06:14:41;2.70;;;2.40;;
10365;SDS011;5229;41.820;23.490;2023-04-10T06:17:09;2.73;;;2.37;;
10365;SDS011;5229;41.820;23.490;2023-04-10T06:19:36;3.10;;;2.33;;
10365;SDS011;5229;41.820;23.490;2023-04-10T06:22:03;2.63;;;2.33;;
10365;SDS011;5229;41.820;23.490;2023-04-10T06:24:30;2.77;;;2.57;;
10365;SDS011;5229;41.820;23.490;2023-04-10T06:26:56;2.83;;;2.30;;
10365;SDS011;5229;41.820;23.490;2023-04-10T06:29:23;2.70;;;2.50;;
10365;SDS011;5229;41.820;23.490;2023-04-10T06:31:50;2.87;;;2.50;;
10365;SDS011;5229;41.820;23.490;2023-04-10T06:34:18;2.90;;;2.60;;
10365;SDS011;5229;41.820;23.490;2023-04-10T06:36:45;3.07;;;2.50;;
10365;SDS011;5229;41.820;23.490;2023-04-10T06:39:12;2.70;;;2.50;;
10365;SDS011;5229;41.820;23.490;2023-04-10T06:41:39;2.83;;;2.63;;
10365;SDS011;5229;41.820;23.490;2023-04-10T06:44:05;3.70;;;1.90;;
10365;SDS011;5229;41.820;23.490;2023-04-10T06:46:32;2.90;;;2.50;;
10365;SDS011;5229;41.820;23.490;2023-04-10T06:48:59;2.80;;;2.20;;
10365;SDS011;5229;41.820;23.490;2023-04-10T06:51:27;2.50;;;2.30;;
10365;SDS011;5229;41.820;23.490;2023-04-10T06:53:55;2.30;;;2.10;;
10365;SDS011;5229;41.820;23.490;2023-04-10T06:56:22;2.80;;;2.50;;
10365;SDS011;5229;41.820;23.490;2023-04-10T06:58:49;3.57;;;2.57;;
10365;SDS011;5229;41.820;23.490;2023-04-10T07:01:15;2.53;;;2.33;;
10365;SDS011;5229;41.820;23.490;2023-04-10T07:03:42;3.13;;;2.73;;
10365;SDS011;5229;41.820;23.490;2023-04-10T07:06:09;2.60;;;2.40;;
10365;SDS011;5229;41.820;23.490;2023-04-10T07:08:37;2.93;;;2.37;;
10365;SDS011;5229;41.820;23.490;2023-04-10T07:11:04;3.13;;;2.50;;
10365;SDS011;5229;41.820;23.490;2023-04-10T07:13:31;2.20;;;2.00;;
10365;SDS011;5229;41.820;23.490;2023-04-10T07:15:59;2.67;;;2.47;;
10365;SDS011;5229;41.820;23.490;2023-04-10T07:18:26;3.57;;;2.53;;
10365;SDS011;5229;41.820;23.490;2023-04-10T07:20:53;3.03;;;2.73;;
10365;SDS011;5229;41.820;23.490;2023-04-10T07:23:20;3.27;;;2.43;;
10365;SDS011;5229;41.820;23.490;2023-04-10T07:25:48;3.07;;;2.67;;
10365;SDS011;5229;41.820;23.490;2023-04-10T07:28:15;2.50;;;2.30;;
10365;SDS011;5229;41.820;23.490;2023-04-10T07:30:42;2.40;;;2.20;;
10365;SDS011;5229;41.820;23.490;2023-04-10T07:33:09;2.50;;;2.10;;
10365;SDS011;5229;41.820;23.490;2023-04-10T07:35:36;2.80;;;2.50;;
10365;SDS011;5229;41.820;23.490;2023-04-10T07:38:03;2.60;;;2.40;;
10365;SDS011;5229;41.820;23.490;2023-04-10T07:40:29;2.90;;;2.60;;
10365;SDS011;5229;41.820;23.490;2023-04-10T07:42:58;2.83;;;2.40;;
10365;SDS011;5229;41.820;23.490;2023-04-10T07:45:24;2.57;;;2.37;;
10365;SDS011;5229;41.820;23.490;2023-04-10T07:47:52;2.80;;;2.50;;
10365;SDS011;5229;41.820;23.490;2023-04-10T07:50:19;3.10;;;2.80;;
10365;SDS011;5229;41.820;23.490;2023-04-10T07:52:46;2.73;;;2.47;;
10365;SDS011;5229;41.820;23.490;2023-04-10T07:55:14;5.10;;;3.17;;
10365;SDS011;5229;41.820;23.490;2023-04-10T07:57:41;3.63;;;2.80;;
10365;SDS011;5229;41.820;23.490;2023-04-10T08:00:09;8.93;;;3.50;;
10365;SDS011;5229;41.820;23.490;2023-04-10T08:02:37;2.57;;;2.37;;
10365;SDS011;5229;41.820;23.490;2023-04-10T08:05:05;3.90;;;3.43;;
10365;SDS011;5229;41.820;23.490;2023-04-10T08:07:32;5.57;;;3.43;;
10365;SDS011;5229;41.820;23.490;2023-04-10T08:10:00;3.33;;;3.03;;
10365;SDS011;5229;41.820;23.490;2023-04-10T08:12:27;4.07;;;3.20;;
10365;SDS011;5229;41.820;23.490;2023-04-10T08:14:56;3.47;;;3.00;;
10365;SDS011;5229;41.820;23.490;2023-04-10T08:17:24;3.10;;;2.80;;
10365;SDS011;5229;41.820;23.490;2023-04-10T08:19:51;4.17;;;3.50;;
10365;SDS011;5229;41.820;23.490;2023-04-10T08:22:18;3.33;;;3.03;;
10365;SDS011;5229;41.820;23.490;2023-04-10T08:24:44;3.07;;;2.77;;
10365;SDS011;5229;41.820;23.490;2023-04-10T08:27:11;2.63;;;2.43;;
10365;SDS011;5229;41.820;23.490;2023-04-10T08:29:40;3.27;;;2.80;;
10365;SDS011;5229;41.820;23.490;2023-04-10T08:32:07;3.00;;;2.60;;
10365;SDS011;5229;41.820;23.490;2023-04-10T08:34:35;3.53;;;2.80;;
10365;SDS011;5229;41.820;23.490;2023-04-10T08:37:04;3.27;;;2.57;;
10365;SDS011;5229;41.820;23.490;2023-04-10T08:39:33;2.90;;;2.53;;
10365;SDS011;5229;41.820;23.490;2023-04-10T08:42:00;2.70;;;2.50;;
10365;SDS011;5229;41.820;23.490;2023-04-10T08:44:27;2.47;;;2.20;;
10365;SDS011;5229;41.820;23.490;2023-04-10T08:46:54;3.10;;;2.80;;
10365;SDS011;5229;41.820;23.490;2023-04-10T08:49:27;3.10;;;2.80;;
10365;SDS011;5229;41.820;23.490;2023-04-10T08:51:59;4.10;;;2.73;;
10365;SDS011;5229;41.820;23.490;2023-04-10T08:54:31;3.10;;;2.80;;
10365;SDS011;5229;41.820;23.490;2023-04-10T08:56:59;2.60;;;2.40;;
10365;SDS011;5229;41.820;23.490;2023-04-10T08:59:26;2.83;;;2.53;;
10365;SDS011;5229;41.820;23.490;2023-04-10T09:01:54;2.67;;;2.30;;
10365;SDS011;5229;41.820;23.490;2023-04-10T09:04:21;2.70;;;2.40;;
10365;SDS011;5229;41.820;23.490;2023-04-10T09:06:49;1.93;;;1.83;;
10365;SDS011;5229;41.820;23.490;2023-04-10T09:09:19;2.43;;;2.23;;
10365;SDS011;5229;41.820;23.490;2023-04-10T09:11:55;2.40;;;2.20;;
10365;SDS011;5229;41.820;23.490;2023-04-10T09:14:25;3.17;;;1.60;;
10365;SDS011;5229;41.820;23.490;2023-04-10T09:17:06;2.03;;;1.83;;
10365;SDS011;5229;41.820;23.490;2023-04-10T09:19:36;2.23;;;2.03;;
10365;SDS011;5229;41.820;23.490;2023-04-10T09:22:03;2.40;;;2.20;;
10365;SDS011;5229;41.820;23.490;2023-04-10T09:24:34;2.27;;;2.07;;
10365;SDS011;5229;41.820;23.490;2023-04-10T09:27:01;1.97;;;1.80;;
10365;SDS011;5229;41.820;23.490;2023-04-10T09:29:37;2.30;;;2.10;;
10365;SDS011;5229;41.820;23.490;2023-04-10T09:32:08;2.23;;;1.90;;
10365;SDS011;5229;41.820;23.490;2023-04-10T09:34:39;2.57;;;2.00;;
10365;SDS011;5229;41.820;23.490;2023-04-10T09:37:18;2.00;;;1.90;;
10365;SDS011;5229;41.820;23.490;2023-04-10T09:39:48;2.10;;;1.90;;
10365;SDS011;5229;41.820;23.490;2023-04-10T09:42:14;1.70;;;1.60;;
10365;SDS011;5229;41.820;23.490;2023-04-10T09:44:41;2.20;;;2.00;;
10365;SDS011;5229;41.820;23.490;2023-04-10T09:47:15;2.73;;;1.80;;
10365;SDS011;5229;41.820;23.490;2023-04-10T09:49:44;2.20;;;2.00;;
10365;SDS011;5229;41.820;23.490;2023-04-10T09:52:18;2.63;;;2.37;;
10365;SDS011;5229;41.820;23.490;2023-04-10T09:54:47;2.37;;;2.17;;
10365;SDS011;5229;41.820;23.490;2023-04-10T09:57:15;2.43;;;2.20;;
10365;SDS011;5229;41.820;23.490;2023-04-10T09:59:45;1.83;;;1.73;;
10365;SDS011;5229;41.820;23.490;2023-04-10T10:02:13;3.33;;;2.30;;
10365;SDS011;5229;41.820;23.490;2023-04-10T10:04:43;2.50;;;2.30;;
10365;SDS011;5229;41.820;23.490;2023-04-10T10:07:11;2.30;;;2.10;;
10365;SDS011;5229;41.820;23.490;2023-04-10T10:09:38;2.23;;;1.90;;
10365;SDS011;5229;41.820;23.490;2023-04-10T10:12:07;1.77;;;1.67;;
10365;SDS011;5229;41.820;23.490;2023-04-10T10:14:36;2.50;;;2.20;;
10365;SDS011;5229;41.820;23.490;2023-04-10T10:17:08;2.27;;;2.07;;
10365;SDS011;5229;41.820;23.490;2023-04-10T10:19:38;2.50;;;2.30;;
10365;SDS011;5229;41.820;23.490;2023-04-10T10:22:10;3.07;;;2.20;;
10365;SDS011;5229;41.820;23.490;2023-04-10T10:24:38;2.30;;;2.10;;
10365;SDS011;5229;41.820;23.490;2023-04-10T10:27:11;2.20;;;1.93;;
10365;SDS011;5229;41.820;23.490;2023-04-10T10:29:40;3.10;;;2.00;;
10365;SDS011;5229;41.820;23.490;2023-04-10T10:32:09;2.60;;;2.03;;
10365;SDS011;5229;41.820;23.490;2023-04-10T10:34:38;2.30;;;2.10;;
10365;SDS011;5229;41.820;23.490;2023-04-10T10:37:06;2.20;;;2.00;;
10365;SDS011;5229;41.820;23.490;2023-04-10T10:39:33;2.43;;;2.10;;
10365;SDS011;5229;41.820;23.490;2023-04-10T10:42:12;3.20;;;2.37;;
10365;SDS011;5229;41.820;23.490;2023-04-10T10:44:49;2.57;;;1.90;;
10365;SDS011;5229;41.820;23.490;2023-04-10T10:47:21;2.20;;;2.00;;
10365;SDS011;5229;41.820;23.490;2023-04-10T10:49:52;2.27;;;2.07;;
10365;SDS011;5229;41.820;23.490;2023-04-10T10:52:36;2.60;;;2.20;;
10365;SDS011;5229;41.820;23.490;2023-04-10T10:58:03;2.83;;;2.63;;
10365;SDS011;5229;41.820;23.490;2023-04-10T11:03:30;2.13;;;1.93;;
10365;SDS011;5229;41.820;23.490;2023-04-10T11:05:57;6.90;;;2.73;;
10365;SDS011;5229;41.820;23.490;2023-04-10T11:08:43;2.50;;;2.30;;
10365;SDS011;5229;41.820;23.490;2023-04-10T11:11:12;6.10;;;3.50;;
10365;SDS011;5229;41.820;23.490;2023-04-10T11:16:43;2.97;;;2.63;;
10365;SDS011;5229;41.820;23.490;2023-04-10T11:19:11;2.77;;;2.40;;
10365;SDS011;5229;41.820;23.490;2023-04-10T11:22:00;2.40;;;2.20;;
10365;SDS011;5229;41.820;23.490;2023-04-10T11:24:29;2.43;;;2.23;;
10365;SDS011;5229;41.820;23.490;2023-04-10T11:30:32;3.43;;;3.00;;
10365;SDS011;5229;41.820;23.490;2023-04-10T11:33:01;2.73;;;2.47;;
10365;SDS011;5229;41.820;23.490;2023-04-10T11:35:29;3.07;;;2.77;;
10365;SDS011;5229;41.820;23.490;2023-04-10T11:38:13;3.87;;;3.17;;
10365;SDS011;5229;41.820;23.490;2023-04-10T11:40:54;3.97;;;3.67;;
10365;SDS011;5229;41.820;23.490;2023-04-10T11:43:22;3.23;;;2.70;;
10365;SDS011;5229;41.820;23.490;2023-04-10T11:45:50;3.37;;;3.07;;
10365;SDS011;5229;41.820;23.490;2023-04-10T11:48:25;4.90;;;4.33;;
10365;SDS011;5229;41.820;23.490;2023-04-10T11:50:52;5.53;;;3.47;;
10365;SDS011;5229;41.820;23.490;2023-04-10T11:53:19;3.43;;;3.13;;
10365;SDS011;5229;41.820;23.490;2023-04-10T11:55:46;3.50;;;3.20;;
10365;SDS011;5229;41.820;23.490;2023-04-10T11:58:20;5.33;;;4.83;;
10365;SDS011;5229;41.820;23.490;2023-04-10T12:00:55;3.70;;;3.33;;
10365;SDS011;5229;41.820;23.490;2023-04-10T12:03:35;3.23;;;2.87;;
10365;SDS011;5229;41.820;23.490;2023-04-10T12:06:04;3.17;;;2.80;;
10365;SDS011;5229;41.820;23.490;2023-04-10T12:08:34;2.67;;;2.47;;
10365;SDS011;5229;41.820;23.490;2023-04-10T12:11:02;2.43;;;2.23;;
10365;SDS011;5229;41.820;23.490;2023-04-10T12:13:29;2.67;;;2.47;;
10365;SDS011;5229;41.820;23.490;2023-04-10T12:15:58;2.87;;;2.67;;
10365;SDS011;5229;41.820;23.490;2023-04-10T12:18:26;2.70;;;2.50;;
10365;SDS011;5229;41.820;23.490;2023-04-10T12:20:54;2.53;;;2.33;;
10365;SDS011;5229;41.820;23.490;2023-04-10T12:23:22;2.87;;;2.67;;
10365;SDS011;5229;41.820;23.490;2023-04-10T12:25:49;3.13;;;2.83;;
10365;SDS011;5229;41.820;23.490;2023-04-10T12:28:16;2.63;;;2.43;;
10365;SDS011;5229;41.820;23.490;2023-04-10T12:30:47;3.23;;;2.90;;
10365;SDS011;5229;41.820;23.490;2023-04-10T12:33:22;3.40;;;3.10;;
10365;SDS011;5229;41.820;23.490;2023-04-10T12:35:50;3.40;;;3.10;;
10365;SDS011;5229;41.820;23.490;2023-04-10T12:41:00;3.77;;;3.17;;
10365;SDS011;5229;41.820;23.490;2023-04-10T12:43:31;4.57;;;2.47;;
10365;SDS011;5229;41.820;23.490;2023-04-10T12:46:00;3.10;;;2.27;;
10365;SDS011;5229;41.820;23.490;2023-04-10T12:48:28;2.63;;;2.43;;
10365;SDS011;5229;41.820;23.490;2023-04-10T12:50:55;2.97;;;2.67;;
10365;SDS011;5229;41.820;23.490;2023-04-10T12:53:22;3.00;;;2.70;;
10365;SDS011;5229;41.820;23.490;2023-04-10T12:55:57;2.50;;;2.30;;
10365;SDS011;5229;41.820;23.490;2023-04-10T12:58:25;2.50;;;2.30;;
10365;SDS011;5229;41.820;23.490;2023-04-10T13:00:53;3.07;;;2.77;;
10365;SDS011;5229;41.820;23.490;2023-04-10T13:03:21;2.67;;;2.47;;
10365;SDS011;5229;41.820;23.490;2023-04-10T13:05:50;5.00;;;3.63;;
10365;SDS011;5229;41.820;23.490;2023-04-10T13:08:17;3.77;;;3.13;;
10365;SDS011;5229;41.820;23.490;2023-04-10T13:10:44;3.87;;;2.87;;
10365;SDS011;5229;41.820;23.490;2023-04-10T13:13:11;2.63;;;2.43;;
10365;SDS011;5229;41.820;23.490;2023-04-10T13:15:38;2.60;;;2.40;;
10365;SDS011;5229;41.820;23.490;2023-04-10T13:18:05;2.73;;;2.50;;
10365;SDS011;5229;41.820;23.490;2023-04-10T13:20:33;2.70;;;2.50;;
10365;SDS011;5229;41.820;23.490;2023-04-10T13:23:01;3.10;;;2.80;;
10365;SDS011;5229;41.820;23.490;2023-04-10T13:25:29;2.80;;;2.60;;
10365;SDS011;5229;41.820;23.490;2023-04-10T13:27:57;3.27;;;2.97;;
10365;SDS011;5229;41.820;23.490;2023-04-10T13:30:24;3.00;;;2.70;;
10365;SDS011;5229;41.820;23.490;2023-04-10T13:32:51;2.60;;;2.40;;
10365;SDS011;5229;41.820;23.490;2023-04-10T13:35:18;3.77;;;2.43;;
10365;SDS011;5229;41.820;23.490;2023-04-10T13:37:45;2.87;;;2.57;;
10365;SDS011;5229;41.820;23.490;2023-04-10T13:40:13;2.77;;;2.57;;
10365;SDS011;5229;41.820;23.490;2023-04-10T13:42:40;3.17;;;2.87;;
10365;SDS011;5229;41.820;23.490;2023-04-10T13:45:07;3.07;;;2.77;;
10365;SDS011;5229;41.820;23.490;2023-04-10T13:47:34;4.73;;;3.27;;
10365;SDS011;5229;41.820;23.490;2023-04-10T13:50:01;3.30;;;2.87;;
10365;SDS011;5229;41.820;23.490;2023-04-10T13:52:27;3.27;;;2.97;;
10365;SDS011;5229;41.820;23.490;2023-04-10T13:54:54;2.60;;;2.40;;
10365;SDS011;5229;41.820;23.490;2023-04-10T13:57:22;3.30;;;3.00;;
10365;SDS011;5229;41.820;23.490;2023-04-10T13:59:49;3.27;;;2.97;;
10365;SDS011;5229;41.820;23.490;2023-04-10T14:02:16;2.80;;;2.50;;
10365;SDS011;5229;41.820;23.490;2023-04-10T14:04:42;2.80;;;2.60;;
10365;SDS011;5229;41.820;23.490;2023-04-10T14:07:10;3.30;;;2.90;;
10365;SDS011;5229;41.820;23.490;2023-04-10T14:09:37;3.37;;;2.87;;
10365;SDS011;5229;41.820;23.490;2023-04-10T14:12:04;2.63;;;2.40;;
10365;SDS011;5229;41.820;23.490;2023-04-10T14:14:32;2.70;;;2.50;;
10365;SDS011;5229;41.820;23.490;2023-04-10T14:16:59;2.57;;;2.37;;
10365;SDS011;5229;41.820;23.490;2023-04-10T14:19:26;2.80;;;2.60;;
10365;SDS011;5229;41.820;23.490;2023-04-10T14:21:53;2.93;;;2.73;;
10365;SDS011;5229;41.820;23.490;2023-04-10T14:24:19;3.00;;;2.50;;
10365;SDS011;5229;41.820;23.490;2023-04-10T14:26:46;3.17;;;2.73;;
10365;SDS011;5229;41.820;23.490;2023-04-10T14:29:13;3.23;;;2.93;;
10365;SDS011;5229;41.820;23.490;2023-04-10T14:31:41;2.80;;;2.60;;
10365;SDS011;5229;41.820;23.490;2023-04-10T14:34:08;3.40;;;3.07;;
10365;SDS011;5229;41.820;23.490;2023-04-10T14:36:34;4.03;;;2.97;;
10365;SDS011;5229;41.820;23.490;2023-04-10T14:39:01;2.67;;;2.47;;
10365;SDS011;5229;41.820;23.490;2023-04-10T14:41:28;3.30;;;2.70;;
10365;SDS011;5229;41.820;23.490;2023-04-10T14:43:55;3.03;;;2.73;;
10365;SDS011;5229;41.820;23.490;2023-04-10T14:46:22;3.07;;;2.67;;
10365;SDS011;5229;41.820;23.490;2023-04-10T14:48:50;2.90;;;2.50;;
10365;SDS011;5229;41.820;23.490;2023-04-10T14:51:17;3.13;;;2.83;;
10365;SDS011;5229;41.820;23.490;2023-04-10T14:53:44;3.20;;;2.63;;
10365;SDS011;5229;41.820;23.490;2023-04-10T14:56:11;2.67;;;2.37;;
10365;SDS011;5229;41.820;23.490;2023-04-10T14:58:38;2.57;;;2.37;;
10365;SDS011;5229;41.820;23.490;2023-04-10T15:01:07;2.83;;;2.60;;
10365;SDS011;5229;41.820;23.490;2023-04-10T15:03:35;3.03;;;2.70;;
10365;SDS011;5229;41.820;23.490;2023-04-10T15:06:04;2.97;;;2.67;;
10365;SDS011;5229;41.820;23.490;2023-04-10T15:08:32;2.67;;;2.47;;
10365;SDS011;5229;41.820;23.490;2023-04-10T15:10:58;2.67;;;2.47;;
10365;SDS011;5229;41.820;23.490;2023-04-10T15:13:26;3.50;;;2.30;;
10365;SDS011;5229;41.820;23.490;2023-04-10T15:15:52;2.83;;;2.63;;